sensor_id;sensor_type;location;lat;lon;timestamp;pressure;altitude;pressure_sealevel;temperature;humidity
2339;BME280;1180;51.438;6.978;2023-02-16T00:00:44;101127.09;;;11.27;64.07
2339;BME280;1180;51.438;6.978;2023-02-16T00:03:13;101124.38;;;11.31;64.15
2339;BME280;1180;51.438;6.978;2023-02-16T00:05:39;101125.50;;;11.25;64.08
2339;BME280;1180;51.438;6.978;2023-02-16T00:08:05;101118.41;;;11.12;64.53
2339;BME280;1180;51.438;6.978;2023-02-16T00:10:32;101119.16;;;11.15;64.24
2339;BME280;1180;51.438;6.978;2023-02-16T00:12:59;101119.91;;;11.17;64.22
2339;BME280;1180;51.438;6.978;2023-02-16T00:15:43;101109.16;;;11.08;64.38
2339;BME280;1180;51.438;6.978;2023-02-16T00:18:17;101114.91;;;11.13;64.32
2339;BME280;1180;51.438;6.978;2023-02-16T00:20:43;101124.63;;;11.07;64.55
2339;BME280;1180;51.438;6.978;2023-02-16T00:23:09;101123.63;;;11.11;64.31
2339;BME280;1180;51.438;6.978;2023-02-16T00:25:34;101111.78;;;11.07;64.11
2339;BME280;1180;51.438;6.978;2023-02-16T00:28:03;101120.16;;;11.12;63.98
2339;BME280;1180;51.438;6.978;2023-02-16T00:30:29;101110.84;;;11.09;63.92
2339;BME280;1180;51.438;6.978;2023-02-16T00:32:55;101111.28;;;11.00;64.08
2339;BME280;1180;51.438;6.978;2023-02-16T00:35:20;101104.47;;;10.99;64.10
2339;BME280;1180;51.438;6.978;2023-02-16T00:37:47;101105.16;;;11.03;64.02
2339;BME280;1180;51.438;6.978;2023-02-16T00:40:14;101107.66;;;11.04;64.04
2339;BME280;1180;51.438;6.978;2023-02-16T00:42:53;101100.09;;;11.01;63.71
2339;BME280;1180;51.438;6.978;2023-02-16T00:45:19;101102.81;;;10.98;63.86
2339;BME280;1180;51.438;6.978;2023-02-16T00:47:48;101103.63;;;10.98;63.96
2339;BME280;1180;51.438;6.978;2023-02-16T00:52:47;101095.66;;;10.86;64.40
2339;BME280;1180;51.438;6.978;2023-02-16T00:55:26;101098.38;;;10.82;64.58
2339;BME280;1180;51.438;6.978;2023-02-16T00:58:01;101103.97;;;10.91;64.47
2339;BME280;1180;51.438;6.978;2023-02-16T01:00:37;101098.31;;;10.84;64.71
2339;BME280;1180;51.438;6.978;2023-02-16T01:03:10;101091.84;;;10.94;63.99
2339;BME280;1180;51.438;6.978;2023-02-16T01:05:37;101085.59;;;11.00;63.68
2339;BME280;1180;51.438;6.978;2023-02-16T01:08:08;101082.69;;;10.89;64.00
2339;BME280;1180;51.438;6.978;2023-02-16T01:10:52;101094.63;;;10.90;63.67
2339;BME280;1180;51.438;6.978;2023-02-16T01:13:47;101094.84;;;10.85;64.47
2339;BME280;1180;51.438;6.978;2023-02-16T01:16:16;101090.25;;;10.92;63.48
2339;BME280;1180;51.438;6.978;2023-02-16T01:18:42;101092.97;;;10.89;63.85
2339;BME280;1180;51.438;6.978;2023-02-16T01:21:08;101091.59;;;10.81;63.83
2339;BME280;1180;51.438;6.978;2023-02-16T01:23:34;101085.53;;;10.82;63.83
2339;BME280;1180;51.438;6.978;2023-02-16T01:26:01;101093.41;;;10.79;64.04
2339;BME280;1180;51.438;6.978;2023-02-16T01:28:26;101079.94;;;10.74;63.88
2339;BME280;1180;51.438;6.978;2023-02-16T01:30:52;101087.56;;;10.76;64.06
2339;BME280;1180;51.438;6.978;2023-02-16T01:33:18;101082.38;;;10.77;64.07
2339;BME280;1180;51.438;6.978;2023-02-16T01:35:44;101083.97;;;10.80;63.90
2339;BME280;1180;51.438;6.978;2023-02-16T01:38:24;101090.34;;;10.71;64.35
2339;BME280;1180;51.438;6.978;2023-02-16T01:41:05;101085.28;;;10.69;64.00
2339;BME280;1180;51.438;6.978;2023-02-16T01:43:51;101088.13;;;10.63;64.34
2339;BME280;1180;51.438;6.978;2023-02-16T01:46:45;101088.69;;;10.70;64.02
2339;BME280;1180;51.438;6.978;2023-02-16T01:49:15;101080.00;;;10.73;63.74
2339;BME280;1180;51.438;6.978;2023-02-16T01:52:33;101076.81;;;10.67;64.08
2339;BME280;1180;51.438;6.978;2023-02-16T01:54:55;101070.13;;;10.65;64.08
2339;BME280;1180;51.438;6.978;2023-02-16T01:57:33;101072.44;;;10.69;63.70
2339;BME280;1180;51.438;6.978;2023-02-16T02:03:00;101072.31;;;10.53;64.00
2339;BME280;1180;51.438;6.978;2023-02-16T02:05:47;101079.72;;;10.60;64.11
2339;BME280;1180;51.438;6.978;2023-02-16T02:08:30;101076.16;;;10.64;63.53
2339;BME280;1180;51.438;6.978;2023-02-16T02:11:17;101076.34;;;10.59;63.75
2339;BME280;1180;51.438;6.978;2023-02-16T02:13:57;101077.16;;;10.60;63.52
2339;BME280;1180;51.438;6.978;2023-02-16T02:16:25;101065.94;;;10.62;63.72
2339;BME280;1180;51.438;6.978;2023-02-16T02:18:51;101072.31;;;10.53;64.01
2339;BME280;1180;51.438;6.978;2023-02-16T02:21:42;101064.00;;;10.48;63.80
2339;BME280;1180;51.438;6.978;2023-02-16T02:27:37;101054.78;;;10.44;64.04
2339;BME280;1180;51.438;6.978;2023-02-16T02:41:38;101057.41;;;10.43;63.64
2339;BME280;1180;51.438;6.978;2023-02-16T02:44:26;101050.72;;;10.38;63.70
2339;BME280;1180;51.438;6.978;2023-02-16T02:46:53;101046.94;;;10.47;63.39
2339;BME280;1180;51.438;6.978;2023-02-16T02:49:18;101038.75;;;10.39;63.19
2339;BME280;1180;51.438;6.978;2023-02-16T02:51:44;101035.31;;;10.40;62.98
2339;BME280;1180;51.438;6.978;2023-02-16T02:59:43;101030.03;;;10.43;62.64
2339;BME280;1180;51.438;6.978;2023-02-16T03:02:30;101017.81;;;10.48;62.35
2339;BME280;1180;51.438;6.978;2023-02-16T03:04:58;101017.16;;;10.45;62.23
2339;BME280;1180;51.438;6.978;2023-02-16T03:07:25;101024.13;;;10.41;62.86
2339;BME280;1180;51.438;6.978;2023-02-16T03:10:12;101016.91;;;10.49;62.54
2339;BME280;1180;51.438;6.978;2023-02-16T03:12:58;101023.22;;;10.42;62.87
2339;BME280;1180;51.438;6.978;2023-02-16T03:15:25;101016.91;;;10.49;62.93
2339;BME280;1180;51.438;6.978;2023-02-16T03:17:54;101017.91;;;10.47;62.66
2339;BME280;1180;51.438;6.978;2023-02-16T03:20:40;101010.06;;;10.50;62.38
2339;BME280;1180;51.438;6.978;2023-02-16T03:23:25;101010.13;;;10.48;62.26
2339;BME280;1180;51.438;6.978;2023-02-16T03:26:09;101007.25;;;10.35;63.03
2339;BME280;1180;51.438;6.978;2023-02-16T03:28:54;101008.78;;;10.39;62.69
2339;BME280;1180;51.438;6.978;2023-02-16T03:31:39;101005.53;;;10.36;63.05
2339;BME280;1180;51.438;6.978;2023-02-16T03:34:05;100999.03;;;10.29;63.19
2339;BME280;1180;51.438;6.978;2023-02-16T03:36:33;100997.13;;;10.32;63.12
2339;BME280;1180;51.438;6.978;2023-02-16T03:38:59;100999.09;;;10.27;62.95
2339;BME280;1180;51.438;6.978;2023-02-16T03:41:30;100995.91;;;10.22;63.36
2339;BME280;1180;51.438;6.978;2023-02-16T03:43:56;100995.00;;;10.23;63.23
2339;BME280;1180;51.438;6.978;2023-02-16T03:46:22;101004.50;;;10.21;63.39
2339;BME280;1180;51.438;6.978;2023-02-16T03:48:47;100991.25;;;10.30;63.09
2339;BME280;1180;51.438;6.978;2023-02-16T03:51:13;101003.88;;;10.35;62.92
2339;BME280;1180;51.438;6.978;2023-02-16T03:53:38;101006.44;;;10.35;62.93
2339;BME280;1180;51.438;6.978;2023-02-16T03:56:03;101007.81;;;10.23;63.66
2339;BME280;1180;51.438;6.978;2023-02-16T03:58:29;101007.75;;;10.24;63.72
2339;BME280;1180;51.438;6.978;2023-02-16T04:00:54;101010.31;;;10.24;63.63
2339;BME280;1180;51.438;6.978;2023-02-16T04:03:20;101011.44;;;10.19;63.73
2339;BME280;1180;51.438;6.978;2023-02-16T04:05:46;101017.25;;;10.22;63.69
2339;BME280;1180;51.438;6.978;2023-02-16T04:08:11;101024.25;;;10.19;63.66
2339;BME280;1180;51.438;6.978;2023-02-16T04:10:38;101009.63;;;10.21;64.05
2339;BME280;1180;51.438;6.978;2023-02-16T04:13:04;101007.88;;;10.21;63.83
2339;BME280;1180;51.438;6.978;2023-02-16T04:15:30;100998.38;;;10.23;63.86
2339;BME280;1180;51.438;6.978;2023-02-16T04:17:55;101003.38;;;10.26;63.59
2339;BME280;1180;51.438;6.978;2023-02-16T04:20:23;101000.59;;;10.31;63.72
2339;BME280;1180;51.438;6.978;2023-02-16T04:22:50;100999.03;;;10.29;63.59
2339;BME280;1180;51.438;6.978;2023-02-16T04:25:17;100998.59;;;10.38;63.80
2339;BME280;1180;51.438;6.978;2023-02-16T04:27:43;100999.25;;;10.43;63.30
2339;BME280;1180;51.438;6.978;2023-02-16T04:30:14;101009.06;;;10.33;63.89
2339;BME280;1180;51.438;6.978;2023-02-16T04:32:40;101013.09;;;10.39;63.26
2339;BME280;1180;51.438;6.978;2023-02-16T04:35:06;101013.88;;;10.41;63.38
2339;BME280;1180;51.438;6.978;2023-02-16T04:37:31;101013.22;;;10.36;63.66
2339;BME280;1180;51.438;6.978;2023-02-16T04:39:57;101003.66;;;10.20;63.82
2339;BME280;1180;51.438;6.978;2023-02-16T04:42:23;100997.47;;;10.24;64.02
2339;BME280;1180;51.438;6.978;2023-02-16T04:44:48;100994.16;;;10.22;63.83
2339;BME280;1180;51.438;6.978;2023-02-16T04:47:14;101000.28;;;10.20;63.97
2339;BME280;1180;51.438;6.978;2023-02-16T04:49:39;101000.13;;;10.23;63.84
2339;BME280;1180;51.438;6.978;2023-02-16T04:52:05;101007.75;;;10.24;63.99
2339;BME280;1180;51.438;6.978;2023-02-16T04:54:31;101010.59;;;10.18;63.85
2339;BME280;1180;51.438;6.978;2023-02-16T04:56:57;101015.94;;;10.14;64.24
2339;BME280;1180;51.438;6.978;2023-02-16T04:59:23;101014.19;;;10.14;64.18
2339;BME280;1180;51.438;6.978;2023-02-16T05:01:48;101014.97;;;10.16;64.12
2339;BME280;1180;51.438;6.978;2023-02-16T05:04:14;101008.09;;;10.17;64.00
2339;BME280;1180;51.438;6.978;2023-02-16T05:06:40;100999.56;;;10.16;64.23
2339;BME280;1180;51.438;6.978;2023-02-16T05:09:06;101011.63;;;10.14;64.19
2339;BME280;1180;51.438;6.978;2023-02-16T05:11:32;101007.81;;;10.04;64.64
2339;BME280;1180;51.438;6.978;2023-02-16T05:14:25;101002.97;;;9.97;65.13
2339;BME280;1180;51.438;6.978;2023-02-16T05:17:26;101016.13;;;10.09;64.97
2339;BME280;1180;51.438;6.978;2023-02-16T05:19:54;101018.09;;;10.04;65.08
2339;BME280;1180;51.438;6.978;2023-02-16T05:22:20;101015.44;;;10.05;64.84
2339;BME280;1180;51.438;6.978;2023-02-16T05:24:47;101007.88;;;10.02;65.28
2339;BME280;1180;51.438;6.978;2023-02-16T05:27:24;101008.44;;;10.09;64.60
2339;BME280;1180;51.438;6.978;2023-02-16T05:29:50;101002.63;;;10.05;64.80
2339;BME280;1180;51.438;6.978;2023-02-16T05:32:16;101009.78;;;9.99;65.02
2339;BME280;1180;51.438;6.978;2023-02-16T05:34:43;101001.03;;;10.03;64.90
2339;BME280;1180;51.438;6.978;2023-02-16T05:37:11;101005.53;;;9.97;64.55
2339;BME280;1180;51.438;6.978;2023-02-16T05:39:37;101010.72;;;9.96;65.07
2339;BME280;1180;51.438;6.978;2023-02-16T05:42:02;101004.66;;;9.99;64.59
2339;BME280;1180;51.438;6.978;2023-02-16T05:44:28;101007.72;;;9.86;65.25
2339;BME280;1180;51.438;6.978;2023-02-16T05:46:54;101008.72;;;9.83;65.10
2339;BME280;1180;51.438;6.978;2023-02-16T05:49:19;101005.16;;;9.86;65.05
2339;BME280;1180;51.438;6.978;2023-02-16T05:51:44;101011.97;;;9.87;65.15
2339;BME280;1180;51.438;6.978;2023-02-16T05:54:10;101009.47;;;9.86;65.14
2339;BME280;1180;51.438;6.978;2023-02-16T05:56:45;101010.53;;;10.01;64.64
2339;BME280;1180;51.438;6.978;2023-02-16T05:59:11;101004.78;;;9.95;64.20
2339;BME280;1180;51.438;6.978;2023-02-16T06:01:36;101001.50;;;9.92;64.56
2339;BME280;1180;51.438;6.978;2023-02-16T06:04:05;101000.31;;;9.99;64.40
2339;BME280;1180;51.438;6.978;2023-02-16T06:06:31;100999.09;;;9.89;64.59
2339;BME280;1180;51.438;6.978;2023-02-16T06:08:56;100997.28;;;9.91;64.44
2339;BME280;1180;51.438;6.978;2023-02-16T06:11:21;100992.28;;;9.88;64.44
2339;BME280;1180;51.438;6.978;2023-02-16T06:14:07;101005.53;;;9.78;64.99
2339;BME280;1180;51.438;6.978;2023-02-16T06:16:33;100993.66;;;9.76;64.38
2339;BME280;1180;51.438;6.978;2023-02-16T06:19:00;100995.31;;;9.77;64.76
2339;BME280;1180;51.438;6.978;2023-02-16T06:21:26;100991.00;;;9.77;64.47
2339;BME280;1180;51.438;6.978;2023-02-16T06:23:51;100993.53;;;9.79;64.51
2339;BME280;1180;51.438;6.978;2023-02-16T06:26:17;100998.97;;;9.71;64.75
2339;BME280;1180;51.438;6.978;2023-02-16T06:28:43;100991.53;;;9.86;64.14
2339;BME280;1180;51.438;6.978;2023-02-16T06:31:08;100996.28;;;9.93;64.10
2339;BME280;1180;51.438;6.978;2023-02-16T06:33:33;101002.31;;;9.92;63.77
2339;BME280;1180;51.438;6.978;2023-02-16T06:35:59;101015.94;;;9.94;63.70
2339;BME280;1180;51.438;6.978;2023-02-16T06:38:24;101011.13;;;9.87;63.86
2339;BME280;1180;51.438;6.978;2023-02-16T06:40:53;101009.66;;;9.81;64.30
2339;BME280;1180;51.438;6.978;2023-02-16T06:43:19;100999.84;;;9.91;64.11
2339;BME280;1180;51.438;6.978;2023-02-16T06:45:45;100995.63;;;9.90;63.94
2339;BME280;1180;51.438;6.978;2023-02-16T06:48:11;100996.44;;;9.90;63.79
2339;BME280;1180;51.438;6.978;2023-02-16T06:50:36;100998.09;;;9.91;63.75
2339;BME280;1180;51.438;6.978;2023-02-16T06:53:02;100993.47;;;10.00;63.54
2339;BME280;1180;51.438;6.978;2023-02-16T06:55:27;100994.53;;;9.95;63.60
2339;BME280;1180;51.438;6.978;2023-02-16T06:57:55;101002.00;;;10.00;63.27
2339;BME280;1180;51.438;6.978;2023-02-16T07:00:20;101004.06;;;10.11;62.99
2339;BME280;1180;51.438;6.978;2023-02-16T07:02:46;101017.09;;;10.06;62.56
2339;BME280;1180;51.438;6.978;2023-02-16T07:05:11;101013.44;;;10.12;62.20
2339;BME280;1180;51.438;6.978;2023-02-16T07:07:37;101013.25;;;10.17;62.52
2339;BME280;1180;51.438;6.978;2023-02-16T07:10:02;101021.47;;;10.04;62.73
2339;BME280;1180;51.438;6.978;2023-02-16T07:12:28;101012.97;;;10.04;62.76
2339;BME280;1180;51.438;6.978;2023-02-16T07:14:53;101019.47;;;10.11;62.47
2339;BME280;1180;51.438;6.978;2023-02-16T07:17:19;101010.59;;;10.18;62.31
2339;BME280;1180;51.438;6.978;2023-02-16T07:19:44;100998.00;;;10.14;62.43
2339;BME280;1180;51.438;6.978;2023-02-16T07:22:09;100998.53;;;10.20;62.45
2339;BME280;1180;51.438;6.978;2023-02-16T07:24:35;100996.09;;;10.36;61.52
2339;BME280;1180;51.438;6.978;2023-02-16T07:27:00;100992.09;;;10.31;61.78
2339;BME280;1180;51.438;6.978;2023-02-16T07:29:26;100985.97;;;10.33;62.20
2339;BME280;1180;51.438;6.978;2023-02-16T07:31:51;100983.75;;;10.25;62.28
2339;BME280;1180;51.438;6.978;2023-02-16T07:34:17;100982.44;;;10.36;61.69
2339;BME280;1180;51.438;6.978;2023-02-16T07:36:43;100972.31;;;10.33;61.77
2339;BME280;1180;51.438;6.978;2023-02-16T07:39:09;100981.69;;;10.34;61.67
2339;BME280;1180;51.438;6.978;2023-02-16T07:41:35;100973.28;;;10.30;62.09
2339;BME280;1180;51.438;6.978;2023-02-16T07:44:00;100985.06;;;10.34;61.73
2339;BME280;1180;51.438;6.978;2023-02-16T07:46:25;100977.31;;;10.36;61.98
2339;BME280;1180;51.438;6.978;2023-02-16T07:48:52;100994.41;;;10.35;61.55
2339;BME280;1180;51.438;6.978;2023-02-16T07:51:25;101004.22;;;10.46;61.42
2339;BME280;1180;51.438;6.978;2023-02-16T07:53:51;101003.47;;;10.44;61.53
2339;BME280;1180;51.438;6.978;2023-02-16T07:56:22;101001.03;;;10.41;61.87
2339;BME280;1180;51.438;6.978;2023-02-16T07:58:50;101005.28;;;10.42;61.38
2339;BME280;1180;51.438;6.978;2023-02-16T08:01:16;101005.88;;;10.47;62.66
2339;BME280;1180;51.438;6.978;2023-02-16T08:03:42;101008.84;;;10.57;62.97
2339;BME280;1180;51.438;6.978;2023-02-16T08:06:07;101007.09;;;10.58;61.41
2339;BME280;1180;51.438;6.978;2023-02-16T08:08:34;101006.84;;;10.64;61.24
2339;BME280;1180;51.438;6.978;2023-02-16T08:10:59;101013.63;;;10.65;61.67
2339;BME280;1180;51.438;6.978;2023-02-16T08:13:31;101020.69;;;10.79;60.67
2339;BME280;1180;51.438;6.978;2023-02-16T08:15:56;101027.09;;;10.70;62.05
2339;BME280;1180;51.438;6.978;2023-02-16T08:19:05;101015.63;;;10.77;61.91
2339;BME280;1180;51.438;6.978;2023-02-16T08:21:32;101023.09;;;10.82;61.37
2339;BME280;1180;51.438;6.978;2023-02-16T08:24:04;101022.47;;;10.77;61.89
2339;BME280;1180;51.438;6.978;2023-02-16T08:26:39;101017.34;;;10.77;61.58
2339;BME280;1180;51.438;6.978;2023-02-16T08:29:06;101021.34;;;10.82;61.31
2339;BME280;1180;51.438;6.978;2023-02-16T08:31:35;101014.84;;;10.75;63.99
2339;BME280;1180;51.438;6.978;2023-02-16T08:34:02;101024.78;;;10.83;62.00
2339;BME280;1180;51.438;6.978;2023-02-16T08:36:33;101012.59;;;10.87;62.00
2339;BME280;1180;51.438;6.978;2023-02-16T08:39:02;101019.25;;;10.91;61.84
2339;BME280;1180;51.438;6.978;2023-02-16T08:41:30;101018.03;;;10.80;62.14
2339;BME280;1180;51.438;6.978;2023-02-16T08:43:56;101027.41;;;10.81;62.17
2339;BME280;1180;51.438;6.978;2023-02-16T08:46:23;101021.50;;;10.79;62.31
2339;BME280;1180;51.438;6.978;2023-02-16T08:48:48;101026.56;;;10.81;62.67
2339;BME280;1180;51.438;6.978;2023-02-16T08:51:15;101019.13;;;10.94;62.66
2339;BME280;1180;51.438;6.978;2023-02-16T08:53:42;101013.84;;;10.97;62.21
2339;BME280;1180;51.438;6.978;2023-02-16T08:56:08;101023.84;;;11.02;62.50
2339;BME280;1180;51.438;6.978;2023-02-16T08:58:35;101024.19;;;11.13;62.24
2339;BME280;1180;51.438;6.978;2023-02-16T09:01:08;101023.34;;;11.12;62.15
2339;BME280;1180;51.438;6.978;2023-02-16T09:03:35;101029.78;;;11.21;61.69
2339;BME280;1180;51.438;6.978;2023-02-16T09:06:03;101022.72;;;11.25;61.49
2339;BME280;1180;51.438;6.978;2023-02-16T09:08:30;101022.59;;;11.28;61.83
2339;BME280;1180;51.438;6.978;2023-02-16T09:11:01;101021.38;;;11.35;61.05
2339;BME280;1180;51.438;6.978;2023-02-16T09:13:26;101022.72;;;11.43;61.58
2339;BME280;1180;51.438;6.978;2023-02-16T09:15:52;101028.47;;;11.48;61.48
2339;BME280;1180;51.438;6.978;2023-02-16T09:18:17;101028.31;;;11.51;61.27
2339;BME280;1180;51.438;6.978;2023-02-16T09:20:43;101027.84;;;11.60;61.25
2339;BME280;1180;51.438;6.978;2023-02-16T09:23:10;101021.81;;;11.61;61.13
2339;BME280;1180;51.438;6.978;2023-02-16T09:25:38;101021.31;;;11.70;61.30
2339;BME280;1180;51.438;6.978;2023-02-16T09:28:05;101022.44;;;11.82;60.62
2339;BME280;1180;51.438;6.978;2023-02-16T09:30:34;101021.25;;;11.88;60.66
2339;BME280;1180;51.438;6.978;2023-02-16T09:33:02;101017.63;;;11.92;60.22
2339;BME280;1180;51.438;6.978;2023-02-16T09:35:27;101020.28;;;11.91;60.34
2339;BME280;1180;51.438;6.978;2023-02-16T09:37:53;101028.81;;;11.91;60.98
2339;BME280;1180;51.438;6.978;2023-02-16T09:40:18;101037.31;;;12.09;60.64
2339;BME280;1180;51.438;6.978;2023-02-16T09:45:41;101039.44;;;12.19;60.99
2339;BME280;1180;51.438;6.978;2023-02-16T09:48:23;101039.16;;;12.23;60.42
2339;BME280;1180;51.438;6.978;2023-02-16T09:50:52;101042.41;;;12.27;60.54
2339;BME280;1180;51.438;6.978;2023-02-16T09:53:39;101047.00;;;12.22;60.73
2339;BME280;1180;51.438;6.978;2023-02-16T10:06:53;101071.97;;;12.20;60.63
2339;BME280;1180;51.438;6.978;2023-02-16T10:09:25;101073.44;;;12.08;61.19
2339;BME280;1180;51.438;6.978;2023-02-16T10:12:09;101072.69;;;12.06;60.75
2339;BME280;1180;51.438;6.978;2023-02-16T10:14:48;101076.38;;;12.00;61.23
2339;BME280;1180;51.438;6.978;2023-02-16T10:19:53;101069.13;;;12.08;60.66
2339;BME280;1180;51.438;6.978;2023-02-16T10:25:21;101060.13;;;11.99;61.64
2339;BME280;1180;51.438;6.978;2023-02-16T10:27:55;101055.66;;;12.03;62.01
2339;BME280;1180;51.438;6.978;2023-02-16T10:30:22;101060.25;;;12.14;61.88
2339;BME280;1180;51.438;6.978;2023-02-16T10:32:56;101050.06;;;12.12;62.04
2339;BME280;1180;51.438;6.978;2023-02-16T10:35:49;101064.66;;;12.12;62.66
2339;BME280;1180;51.438;6.978;2023-02-16T10:45:52;101080.44;;;12.22;62.73
2339;BME280;1180;51.438;6.978;2023-02-16T10:48:20;101077.88;;;12.22;63.10
2339;BME280;1180;51.438;6.978;2023-02-16T10:51:10;101073.22;;;12.12;63.29
2339;BME280;1180;51.438;6.978;2023-02-16T10:53:42;101067.63;;;12.20;63.65
2339;BME280;1180;51.438;6.978;2023-02-16T10:59:23;101064.28;;;12.36;63.23
2339;BME280;1180;51.438;6.978;2023-02-16T11:01:51;101067.50;;;12.55;62.75
2339;BME280;1180;51.438;6.978;2023-02-16T11:04:38;101056.38;;;12.55;63.15
2339;BME280;1180;51.438;6.978;2023-02-16T11:07:15;101058.38;;;12.66;62.87
2339;BME280;1180;51.438;6.978;2023-02-16T11:09:44;101053.63;;;12.74;63.04
2339;BME280;1180;51.438;6.978;2023-02-16T11:12:26;101062.47;;;12.84;63.26
2339;BME280;1180;51.438;6.978;2023-02-16T11:14:58;101053.28;;;12.64;63.51
2339;BME280;1180;51.438;6.978;2023-02-16T11:17:26;101055.09;;;12.78;63.43
2339;BME280;1180;51.438;6.978;2023-02-16T11:19:59;101049.34;;;12.89;63.40
2339;BME280;1180;51.438;6.978;2023-02-16T11:27:55;101038.00;;;12.77;64.32
2339;BME280;1180;51.438;6.978;2023-02-16T11:30:35;101030.44;;;12.74;64.78
2339;BME280;1180;51.438;6.978;2023-02-16T11:33:03;101030.78;;;12.68;64.96
2339;BME280;1180;51.438;6.978;2023-02-16T11:35:31;101029.44;;;12.77;64.89
2339;BME280;1180;51.438;6.978;2023-02-16T11:38:05;101021.03;;;12.89;64.65
2339;BME280;1180;51.438;6.978;2023-02-16T11:40:32;101013.63;;;12.83;64.66
2339;BME280;1180;51.438;6.978;2023-02-16T11:43:00;101010.78;;;12.88;64.99
2339;BME280;1180;51.438;6.978;2023-02-16T11:45:30;101007.13;;;12.92;65.47
2339;BME280;1180;51.438;6.978;2023-02-16T11:48:26;101021.63;;;12.78;66.48
2339;BME280;1180;51.438;6.978;2023-02-16T11:51:04;101017.44;;;12.76;67.09
2339;BME280;1180;51.438;6.978;2023-02-16T11:53:33;101019.38;;;12.72;67.92
2339;BME280;1180;51.438;6.978;2023-02-16T11:56:26;101030.25;;;12.77;68.74
2339;BME280;1180;51.438;6.978;2023-02-16T11:59:05;101025.19;;;12.76;68.50
2339;BME280;1180;51.438;6.978;2023-02-16T12:02:06;101015.34;;;12.52;68.97
2339;BME280;1180;51.438;6.978;2023-02-16T12:10:44;101011.84;;;12.69;70.49
2339;BME280;1180;51.438;6.978;2023-02-16T12:13:31;100990.88;;;12.75;71.70
2339;BME280;1180;51.438;6.978;2023-02-16T12:21:40;100983.94;;;12.92;72.88
2339;BME280;1180;51.438;6.978;2023-02-16T12:27:02;100986.19;;;12.98;72.66
2339;BME280;1180;51.438;6.978;2023-02-16T12:29:55;100996.31;;;13.01;72.45
2339;BME280;1180;51.438;6.978;2023-02-16T12:32:32;101004.59;;;13.06;72.58
2339;BME280;1180;51.438;6.978;2023-02-16T12:35:05;101000.53;;;13.02;72.50
2339;BME280;1180;51.438;6.978;2023-02-16T12:45:37;100974.34;;;13.10;71.18
2339;BME280;1180;51.438;6.978;2023-02-16T12:50:35;100983.97;;;13.06;70.81
2339;BME280;1180;51.438;6.978;2023-02-16T12:53:26;100990.13;;;13.04;71.02
2339;BME280;1180;51.438;6.978;2023-02-16T12:56:02;100981.28;;;13.08;70.66
2339;BME280;1180;51.438;6.978;2023-02-16T12:58:35;100990.25;;;13.17;70.31
2339;BME280;1180;51.438;6.978;2023-02-16T13:01:08;100990.72;;;13.23;70.23
2339;BME280;1180;51.438;6.978;2023-02-16T13:03:46;100987.53;;;13.34;70.22
2339;BME280;1180;51.438;6.978;2023-02-16T13:08:50;100989.00;;;13.38;69.84
2339;BME280;1180;51.438;6.978;2023-02-16T13:11:33;100977.66;;;13.41;69.80
2339;BME280;1180;51.438;6.978;2023-02-16T13:14:03;100963.84;;;13.42;69.81
2339;BME280;1180;51.438;6.978;2023-02-16T13:16:45;100954.75;;;13.51;69.36
2339;BME280;1180;51.438;6.978;2023-02-16T13:19:13;100970.75;;;13.41;69.03
2339;BME280;1180;51.438;6.978;2023-02-16T13:27:46;100950.59;;;13.34;69.24
2339;BME280;1180;51.438;6.978;2023-02-16T13:38:48;100947.94;;;13.50;70.38
2339;BME280;1180;51.438;6.978;2023-02-16T13:44:01;100938.84;;;13.58;70.21
2339;BME280;1180;51.438;6.978;2023-02-16T13:46:31;100927.31;;;13.50;69.87
2339;BME280;1180;51.438;6.978;2023-02-16T13:48:59;100929.63;;;13.54;70.10
2339;BME280;1180;51.438;6.978;2023-02-16T13:51:27;100920.25;;;13.53;69.99
2339;BME280;1180;51.438;6.978;2023-02-16T13:54:04;100920.50;;;13.49;70.34
2339;BME280;1180;51.438;6.978;2023-02-16T13:56:37;100919.03;;;13.45;70.25
2339;BME280;1180;51.438;6.978;2023-02-16T14:01:42;100916.63;;;13.27;71.20
2339;BME280;1180;51.438;6.978;2023-02-16T14:06:48;100914.22;;;13.24;72.34
2339;BME280;1180;51.438;6.978;2023-02-16T14:19:50;100918.44;;;13.25;71.90
2339;BME280;1180;51.438;6.978;2023-02-16T14:22:32;100906.59;;;13.22;72.11
2339;BME280;1180;51.438;6.978;2023-02-16T14:25:05;100895.63;;;13.19;72.85
2339;BME280;1180;51.438;6.978;2023-02-16T14:30:18;100875.22;;;13.30;73.51
2339;BME280;1180;51.438;6.978;2023-02-16T14:32:50;100869.66;;;13.36;73.08
2339;BME280;1180;51.438;6.978;2023-02-16T14:35:20;100863.97;;;13.46;72.70
2339;BME280;1180;51.438;6.978;2023-02-16T14:38:04;100861.75;;;13.54;72.68
2339;BME280;1180;51.438;6.978;2023-02-16T14:43:09;100863.00;;;13.76;71.20
2339;BME280;1180;51.438;6.978;2023-02-16T14:57:14;100863.25;;;13.85;70.99
2339;BME280;1180;51.438;6.978;2023-02-16T14:59:49;100853.44;;;13.91;70.67
2339;BME280;1180;51.438;6.978;2023-02-16T15:02:38;100849.31;;;13.88;70.52
2339;BME280;1180;51.438;6.978;2023-02-16T15:05:25;100835.84;;;13.97;70.80
2339;BME280;1180;51.438;6.978;2023-02-16T15:08:06;100829.44;;;14.03;71.13
2339;BME280;1180;51.438;6.978;2023-02-16T15:10:36;100828.31;;;14.07;70.90
2339;BME280;1180;51.438;6.978;2023-02-16T15:13:33;100815.22;;;14.10;70.65
2339;BME280;1180;51.438;6.978;2023-02-16T15:16:06;100822.97;;;14.10;70.97
2339;BME280;1180;51.438;6.978;2023-02-16T15:18:51;100818.94;;;14.19;70.68
2339;BME280;1180;51.438;6.978;2023-02-16T15:21:26;100814.19;;;14.13;70.74
2339;BME280;1180;51.438;6.978;2023-02-16T15:24:01;100815.53;;;14.19;71.24
2339;BME280;1180;51.438;6.978;2023-02-16T15:26:32;100810.19;;;14.35;71.41
2339;BME280;1180;51.438;6.978;2023-02-16T15:29:23;100812.16;;;14.44;71.28
2339;BME280;1180;51.438;6.978;2023-02-16T15:31:48;100817.53;;;14.54;71.22
2339;BME280;1180;51.438;6.978;2023-02-16T15:34:29;100819.91;;;14.57;71.17
2339;BME280;1180;51.438;6.978;2023-02-16T15:37:00;100821.16;;;14.64;70.95
2339;BME280;1180;51.438;6.978;2023-02-16T15:39:28;100827.97;;;14.65;70.93
2339;BME280;1180;51.438;6.978;2023-02-16T15:44:39;100822.09;;;14.63;71.64
2339;BME280;1180;51.438;6.978;2023-02-16T15:47:29;100823.53;;;14.67;72.02
2339;BME280;1180;51.438;6.978;2023-02-16T15:49:54;100823.13;;;14.73;71.54
2339;BME280;1180;51.438;6.978;2023-02-16T15:52:26;100816.31;;;14.72;71.78
2339;BME280;1180;51.438;6.978;2023-02-16T15:54:53;100815.50;;;14.72;71.82